createdAt,value
2023-02-27T00:00:37.235Z,99142.88
2023-02-27T00:02:09.243Z,99137.72
2023-02-27T00:03:41.096Z,99133.41
2023-02-27T00:05:13.076Z,99124.88
2023-02-27T00:06:45.055Z,99122.31
2023-02-27T00:08:16.902Z,99124.00
2023-02-27T00:09:48.760Z,99133.41
2023-02-27T00:11:20.630Z,99127.44
2023-02-27T00:12:52.619Z,99117.16
2023-02-27T00:14:24.448Z,99120.56
2023-02-27T00:15:56.778Z,99117.97
2023-02-27T00:17:30.016Z,99126.56
2023-02-27T00:19:05.107Z,99127.44
2023-02-27T00:22:10.609Z,99116.28
2023-02-27T00:23:42.447Z,99111.16
2023-02-27T00:25:14.657Z,99129.22
2023-02-27T00:26:46.443Z,99123.25
2023-02-27T00:28:18.301Z,99125.81
2023-02-27T00:29:50.168Z,99128.41
2023-02-27T00:31:22.004Z,99124.16
2023-02-27T00:32:54.355Z,99131.88
2023-02-27T00:34:26.302Z,99133.56
2023-02-27T00:35:58.707Z,99152.38
2023-02-27T00:37:30.630Z,99140.31
2023-02-27T00:39:02.481Z,99142.81
2023-02-27T00:40:36.318Z,99141.97
2023-02-27T00:42:08.255Z,99135.94
2023-02-27T00:43:40.134Z,99115.41
2023-02-27T00:45:12.078Z,99110.19
2023-02-27T00:46:44.331Z,99097.22
2023-02-27T00:48:16.412Z,99096.34
2023-02-27T00:49:48.406Z,99098.06
2023-02-27T00:51:20.641Z,99113.50
2023-02-27T00:52:52.459Z,99120.38
2023-02-27T00:54:24.393Z,99125.53
2023-02-27T00:55:56.251Z,99121.97
2023-02-27T00:57:28.299Z,99129.63
2023-02-27T00:59:00.137Z,99116.66
2023-02-27T01:00:32.062Z,99109.78
2023-02-27T01:02:03.915Z,99113.19
2023-02-27T01:03:35.847Z,99108.91
2023-02-27T01:05:07.838Z,99098.72
2023-02-27T01:06:39.809Z,99110.75
2023-02-27T01:08:11.638Z,99113.31
2023-02-27T01:09:43.593Z,99120.22
2023-02-27T01:11:15.460Z,99138.22
2023-02-27T01:12:47.321Z,99157.09
2023-02-27T01:14:19.262Z,99162.28
2023-02-27T01:15:51.136Z,99168.31
2023-02-27T01:17:23.028Z,99165.78
2023-02-27T01:18:55.117Z,99161.50
2023-02-27T01:20:27.009Z,99145.38
2023-02-27T01:21:58.940Z,99129.13
2023-02-27T01:23:30.892Z,99137.72
2023-02-27T01:25:02.797Z,99153.09
2023-02-27T01:26:34.788Z,99153.03
2023-02-27T01:28:06.639Z,99147.88
2023-02-27T01:29:38.461Z,99138.47
2023-02-27T01:31:10.292Z,99134.19
2023-02-27T01:32:42.342Z,99135.09
2023-02-27T01:34:14.157Z,99140.22
2023-02-27T01:35:45.978Z,99156.50
2023-02-27T01:37:18.245Z,99181.31
2023-02-27T01:38:50.150Z,99192.44
2023-02-27T01:41:55.586Z,99200.84
2023-02-27T01:43:27.630Z,99193.97
2023-02-27T01:45:11.678Z,99193.09
2023-02-27T01:46:43.996Z,99201.66
2023-02-27T01:48:17.215Z,99213.66
2023-02-27T01:49:49.064Z,99213.69
2023-02-27T01:51:21.464Z,99225.66
2023-02-27T01:52:54.565Z,99213.69
2023-02-27T01:54:26.467Z,99209.44
2023-02-27T01:56:04.769Z,99210.25
2023-02-27T01:57:36.592Z,99217.13
2023-02-27T01:59:08.665Z,99222.19
2023-02-27T02:00:40.771Z,99229.84
2023-02-27T02:02:15.364Z,99227.25
2023-02-27T02:04:01.604Z,99230.69
2023-02-27T02:05:33.425Z,99230.69
2023-02-27T02:07:07.512Z,99238.44
2023-02-27T02:08:42.487Z,99241.94
2023-02-27T02:11:47.024Z,99260.88
2023-02-27T02:13:19.405Z,99255.72
2023-02-27T02:14:51.571Z,99269.50
2023-02-27T02:16:35.668Z,99266.06
2023-02-27T02:18:17.030Z,99265.19
2023-02-27T02:20:00.700Z,99282.28
2023-02-27T02:21:32.507Z,99286.53
2023-02-27T02:23:04.299Z,99294.28
2023-02-27T02:24:39.182Z,99291.69
2023-02-27T02:26:14.241Z,99298.59
2023-02-27T02:27:51.970Z,99294.28
2023-02-27T02:29:42.834Z,99295.13
2023-02-27T02:31:15.441Z,99289.13
2023-02-27T02:33:06.094Z,99287.44
2023-02-27T02:34:37.960Z,99291.75
2023-02-27T02:36:24.924Z,99285.72
2023-02-27T02:38:15.584Z,99281.50
2023-02-27T02:40:13.827Z,99283.28
2023-02-27T02:42:18.293Z,99285.06
2023-02-27T02:43:52.884Z,99292.81
2023-02-27T02:47:02.470Z,99316.84
2023-02-27T02:48:52.986Z,99329.78
2023-02-27T02:50:30.926Z,99358.94
2023-02-27T02:52:11.173Z,99362.38
2023-02-27T02:53:45.993Z,99358.09
2023-02-27T02:55:25.443Z,99353.84
2023-02-27T02:57:04.621Z,99349.53
2023-02-27T02:58:38.536Z,99349.56
2023-02-27T03:00:12.497Z,99350.44
2023-02-27T03:01:46.233Z,99355.63
2023-02-27T03:03:23.110Z,99360.78
2023-02-27T03:04:59.106Z,99360.78
2023-02-27T03:06:34.394Z,99373.59
2023-02-27T03:08:11.418Z,99376.16
2023-02-27T03:09:45.040Z,99383.03
2023-02-27T03:11:16.819Z,99390.78
2023-02-27T03:12:53.215Z,99402.78
2023-02-27T03:14:27.864Z,99407.03
2023-02-27T03:16:02.655Z,99425.00
2023-02-27T03:17:39.140Z,99446.41
2023-02-27T03:19:16.448Z,99483.25
2023-02-27T03:20:53.058Z,99502.13
2023-02-27T03:22:30.713Z,99514.97
2023-02-27T03:24:03.681Z,99522.66
2023-02-27T03:25:35.537Z,99530.38
2023-02-27T03:27:07.959Z,99549.28
2023-02-27T03:28:40.962Z,99568.13
2023-02-27T03:30:29.980Z,99576.69
2023-02-27T03:32:07.932Z,99588.63
2023-02-27T03:33:40.871Z,99598.94
2023-02-27T03:35:13.108Z,99611.84
2023-02-27T03:36:49.574Z,99604.09
2023-02-27T03:38:23.422Z,99599.78
2023-02-27T03:39:57.194Z,99583.53
2023-02-27T03:41:33.444Z,99542.44
2023-02-27T03:43:23.288Z,99540.66
2023-02-27T03:46:46.483Z,99501.22
2023-02-27T03:48:18.433Z,99501.22
2023-02-27T03:49:51.524Z,99514.09
2023-02-27T03:51:24.388Z,99507.25
2023-02-27T03:52:56.860Z,99506.41
2023-02-27T03:54:30.830Z,99497.00
2023-02-27T03:56:03.265Z,99486.72
2023-02-27T03:57:38.713Z,99473.88
2023-02-27T03:59:10.576Z,99483.28
2023-02-27T04:00:42.539Z,99491.03
2023-02-27T04:02:14.470Z,99506.47
2023-02-27T04:04:06.672Z,99512.47
2023-02-27T04:05:38.636Z,99507.31
2023-02-27T04:07:33.586Z,99508.16
2023-02-27T04:09:11.478Z,99533.88
2023-02-27T04:11:09.433Z,99551.88
2023-02-27T04:13:10.844Z,99547.59
2023-02-27T04:14:49.646Z,99546.69
2023-02-27T04:16:30.386Z,99546.75
2023-02-27T04:18:02.527Z,99554.47
2023-02-27T04:19:37.332Z,99561.28
2023-02-27T04:21:24.484Z,99557.03
2023-02-27T04:22:58.919Z,99563.03
2023-02-27T04:24:30.836Z,99563.88
2023-02-27T04:26:02.643Z,99568.16
2023-02-27T04:27:34.465Z,99594.75
2023-02-27T04:29:06.416Z,99595.59
2023-02-27T04:30:46.117Z,99600.75
2023-02-27T04:32:22.018Z,99599.91
2023-02-27T04:33:53.957Z,99610.19
2023-02-27T04:35:34.926Z,99611.91
2023-02-27T04:37:17.975Z,99623.06
2023-02-27T04:38:52.170Z,99638.53
2023-02-27T04:40:33.642Z,99650.50
2023-02-27T04:42:10.795Z,99653.13
2023-02-27T04:43:42.605Z,99656.53
2023-02-27T04:45:15.556Z,99650.53
2023-02-27T04:46:47.687Z,99642.81
2023-02-27T04:49:54.879Z,99652.22
2023-02-27T04:51:28.504Z,99654.84
2023-02-27T04:53:02.897Z,99657.41
2023-02-27T04:54:49.852Z,99657.41
2023-02-27T04:56:26.296Z,99680.59
2023-02-27T04:58:00.156Z,99678.97
2023-02-27T04:59:34.050Z,99687.56
2023-02-27T05:01:08.260Z,99685.84
2023-02-27T05:02:42.389Z,99691.03
2023-02-27T05:04:15.692Z,99703.00
2023-02-27T05:05:47.588Z,99703.88
2023-02-27T05:07:20.283Z,99712.44
2023-02-27T05:08:56.389Z,99723.56
2023-02-27T05:10:28.234Z,99716.72
2023-02-27T05:12:00.136Z,99726.19
2023-02-27T05:13:39.501Z,99726.19
2023-02-27T05:15:13.041Z,99735.59
2023-02-27T05:17:14.094Z,99733.88
2023-02-27T05:18:46.286Z,99734.75
2023-02-27T05:20:18.367Z,99748.44
2023-02-27T05:22:03.056Z,99751.00
2023-02-27T05:23:40.333Z,99763.88
2023-02-27T05:25:21.048Z,99774.97
2023-02-27T05:27:03.921Z,99770.69
2023-02-27T05:28:37.432Z,99783.56
2023-02-27T05:30:32.550Z,99781.84
2023-02-27T05:32:20.777Z,99785.25
2023-02-27T05:33:55.778Z,99788.69
2023-02-27T05:35:32.525Z,99792.97
2023-02-27T05:37:24.758Z,99796.38
2023-02-27T05:38:57.788Z,99798.06
2023-02-27T05:40:37.855Z,99803.22
2023-02-27T05:42:15.028Z,99801.50
2023-02-27T05:43:48.155Z,99805.78
2023-02-27T05:45:21.302Z,99814.34
2023-02-27T05:46:54.373Z,99809.19
2023-02-27T05:48:27.861Z,99813.47
2023-02-27T05:50:05.729Z,99824.66
2023-02-27T05:51:45.512Z,99830.63
2023-02-27T05:53:17.950Z,99836.66
2023-02-27T05:55:08.769Z,99840.91
2023-02-27T05:56:40.894Z,99842.63
2023-02-27T05:58:18.624Z,99852.06
2023-02-27T05:59:52.613Z,99866.66
2023-02-27T06:01:24.948Z,99855.50
2023-02-27T06:02:56.852Z,99858.06
2023-02-27T06:04:29.299Z,99853.78
2023-02-27T06:06:02.092Z,99857.22
2023-02-27T06:07:34.325Z,99858.91
2023-02-27T06:09:06.180Z,99857.19
2023-02-27T06:10:38.296Z,99857.22
2023-02-27T06:12:10.162Z,99868.38
2023-02-27T06:13:43.558Z,99866.63
2023-02-27T06:15:15.672Z,99868.34
2023-02-27T06:16:47.561Z,99865.75
2023-02-27T06:18:19.701Z,99868.34
2023-02-27T06:19:51.642Z,99861.50
2023-02-27T06:21:28.396Z,99872.63
2023-02-27T06:23:00.442Z,99880.34
2023-02-27T06:24:32.468Z,99876.06
2023-02-27T06:26:06.996Z,99884.63
2023-02-27T06:27:38.937Z,99880.34
2023-02-27T06:29:10.816Z,99890.66
2023-02-27T06:30:43.920Z,99887.19
2023-02-27T06:32:19.364Z,99875.22
2023-02-27T06:33:51.165Z,99882.94
2023-02-27T06:35:23.107Z,99880.34
2023-02-27T06:36:55.047Z,99888.91
2023-02-27T06:38:26.955Z,99887.19
2023-02-27T06:39:59.195Z,99894.91
2023-02-27T06:41:31.111Z,99894.91
2023-02-27T06:43:02.903Z,99905.19
2023-02-27T06:44:34.750Z,99904.31
2023-02-27T06:46:06.670Z,99906.03
2023-02-27T06:47:38.900Z,99905.16
2023-02-27T06:49:10.788Z,99911.16
2023-02-27T06:50:43.664Z,99910.34
2023-02-27T06:52:15.613Z,99907.75
2023-02-27T06:53:47.796Z,99902.59
2023-02-27T06:55:21.254Z,99902.59
2023-02-27T06:56:53.160Z,99902.56
2023-02-27T06:58:25.569Z,99905.16
2023-02-27T06:59:57.467Z,99907.69
2023-02-27T07:01:29.417Z,99906.84
2023-02-27T07:03:04.923Z,99903.38
2023-02-27T07:04:36.757Z,99907.66
2023-02-27T07:06:08.723Z,99912.78
2023-02-27T07:07:40.727Z,99913.63
2023-02-27T07:09:12.694Z,99911.88
2023-02-27T07:10:47.374Z,99913.66
2023-02-27T07:12:19.364Z,99918.78
2023-02-27T07:13:51.294Z,99919.66
2023-02-27T07:15:23.212Z,99911.94
2023-02-27T07:16:55.190Z,99914.50
2023-02-27T07:18:27.186Z,99912.75
2023-02-27T07:19:59.061Z,99915.31
2023-02-27T07:21:31.063Z,99917.88
2023-02-27T07:23:03.109Z,99924.72
2023-02-27T07:24:35.178Z,99933.31
2023-02-27T07:26:07.105Z,99932.41
2023-02-27T07:27:39.001Z,99923.84
2023-02-27T07:29:10.924Z,99930.69
2023-02-27T07:30:42.900Z,99921.19
2023-02-27T07:32:14.887Z,99926.34
2023-02-27T07:33:46.817Z,99928.16
2023-02-27T07:35:19.875Z,99920.38
2023-02-27T07:36:54.723Z,99928.13
2023-02-27T07:38:26.832Z,99934.13
2023-02-27T07:39:58.736Z,99934.97
2023-02-27T07:41:31.267Z,99945.28
2023-02-27T07:43:03.643Z,99949.56
2023-02-27T07:44:35.571Z,99952.09
2023-02-27T07:46:07.439Z,99956.38
2023-02-27T07:47:39.313Z,99960.66
2023-02-27T07:49:11.350Z,99963.28
2023-02-27T07:50:43.296Z,99967.50
2023-02-27T07:52:15.174Z,99966.66
2023-02-27T07:53:47.175Z,99963.16
2023-02-27T07:55:19.208Z,99961.44
2023-02-27T07:56:51.062Z,99954.56
2023-02-27T07:58:23.004Z,99947.66
2023-02-27T07:59:55.006Z,99945.09
2023-02-27T08:01:27.546Z,99950.25
2023-02-27T08:03:00.748Z,99952.78
2023-02-27T08:04:32.778Z,99952.75
2023-02-27T08:06:04.867Z,99962.19
2023-02-27T08:07:37.019Z,99960.44
2023-02-27T08:09:09.050Z,99955.25
2023-02-27T08:10:40.935Z,99954.31
2023-02-27T09:05:50.739Z,100038.13
2023-02-27T09:07:22.606Z,100052.72
2023-02-27T09:08:54.480Z,100057.88
2023-02-27T09:10:26.350Z,100054.38
2023-02-27T09:11:58.297Z,100046.59
2023-02-27T09:13:30.404Z,100056.94
2023-02-27T09:15:02.258Z,100053.50
2023-02-27T09:16:34.188Z,100060.47
2023-02-27T09:18:07.465Z,100058.69
2023-02-27T09:19:39.428Z,100065.63
2023-02-27T09:21:11.338Z,100067.34
2023-02-27T09:22:43.497Z,100070.81
2023-02-27T09:24:20.341Z,100069.84
2023-02-27T09:25:52.753Z,100071.50
2023-02-27T09:27:24.752Z,100066.31
2023-02-27T09:28:56.656Z,100069.75
2023-02-27T09:30:28.666Z,100061.09
2023-02-27T09:32:00.666Z,100061.03
2023-02-27T09:33:33.021Z,100063.56
2023-02-27T09:35:05.163Z,100068.63
2023-02-27T09:36:37.055Z,100066.81
2023-02-27T09:38:08.970Z,100060.66
2023-02-27T09:39:40.837Z,100055.44
2023-02-27T09:41:41.934Z,100063.94
2023-02-27T09:43:17.728Z,100058.63
2023-02-27T09:44:53.011Z,100065.41
2023-02-27T09:46:25.963Z,100069.69
2023-02-27T09:48:01.719Z,100071.38
2023-02-27T09:51:08.910Z,100054.06
2023-02-27T09:52:40.973Z,100060.97
2023-02-27T09:54:12.907Z,100066.16
2023-02-27T09:55:45.019Z,100061.75
2023-02-27T09:57:19.250Z,100065.28
2023-02-27T09:58:53.888Z,100071.34
2023-02-27T10:00:44.622Z,100074.84
2023-02-27T10:02:22.588Z,100072.19
2023-02-27T10:04:10.129Z,100070.53
2023-02-27T10:05:43.040Z,100071.50
2023-02-27T10:07:30.291Z,100081.16
2023-02-27T10:09:11.411Z,100076.03
2023-02-27T10:10:46.106Z,100074.50
2023-02-27T10:12:24.161Z,100073.53
2023-02-27T10:14:19.456Z,100076.06
2023-02-27T10:15:52.324Z,100074.16
2023-02-27T10:17:24.907Z,100069.03
2023-02-27T10:18:58.519Z,100079.47
2023-02-27T10:20:34.509Z,100075.97
2023-02-27T10:22:11.437Z,100079.50
2023-02-27T10:23:46.358Z,100076.94
2023-02-27T10:25:30.747Z,100078.63
2023-02-27T10:27:06.210Z,100085.47
2023-02-27T10:28:38.098Z,100084.59
2023-02-27T10:30:29.475Z,100086.63
2023-02-27T10:32:02.870Z,100089.84
2023-02-27T10:33:38.134Z,100089.69
2023-02-27T10:35:11.255Z,100084.53
2023-02-27T10:36:44.188Z,100083.53
2023-02-27T10:38:18.037Z,100083.50
2023-02-27T10:39:57.342Z,100081.78
2023-02-27T10:41:29.626Z,100079.97
2023-02-27T10:43:01.873Z,100083.38
2023-02-27T10:44:34.522Z,100080.84
2023-02-27T10:46:16.647Z,100085.06
2023-02-27T10:47:48.599Z,100086.03
2023-02-27T10:49:21.535Z,100087.00
2023-02-27T10:50:53.393Z,100088.63
2023-02-27T10:52:25.248Z,100086.88
2023-02-27T10:54:17.541Z,100089.41
2023-02-27T10:55:58.674Z,100083.31
2023-02-27T10:57:31.680Z,100084.22
2023-02-27T10:59:07.110Z,100086.88
2023-02-27T11:00:41.212Z,100083.31
2023-02-27T11:02:16.237Z,100085.97
2023-02-27T11:03:49.146Z,100086.88
2023-02-27T11:05:26.066Z,100089.38
2023-02-27T11:06:58.194Z,100091.81
2023-02-27T11:08:30.828Z,100095.34
2023-02-27T11:10:14.872Z,100085.88
2023-02-27T11:11:46.811Z,100090.13
2023-02-27T11:13:22.025Z,100092.66
2023-02-27T11:14:55.014Z,100094.34
2023-02-27T11:16:27.196Z,100097.69
2023-02-27T11:18:17.456Z,100089.06
2023-02-27T11:19:50.203Z,100090.00
2023-02-27T11:21:27.742Z,100082.13
2023-02-27T11:24:45.185Z,100093.25
2023-02-27T11:26:18.476Z,100095.78
2023-02-27T11:27:52.412Z,100086.34
2023-02-27T11:29:24.326Z,100080.22
2023-02-27T11:31:06.422Z,100077.63
2023-02-27T11:32:41.074Z,100078.47
2023-02-27T11:34:18.817Z,100079.38
2023-02-27T11:35:51.483Z,100078.53
2023-02-27T11:37:31.525Z,100083.72
2023-02-27T11:39:03.551Z,100077.63
2023-02-27T11:40:39.328Z,100082.88
2023-02-27T11:42:17.459Z,100084.72
2023-02-27T11:43:52.902Z,100087.31
2023-02-27T11:46:09.321Z,100082.88
2023-02-27T11:47:21.996Z,100090.59
2023-02-27T11:48:56.708Z,100090.56
2023-02-27T11:50:40.229Z,100089.59
2023-02-27T11:52:17.517Z,100097.34
2023-02-27T11:54:04.982Z,100098.16
2023-02-27T11:55:36.909Z,100097.25
2023-02-27T11:57:09.019Z,100089.75
2023-02-27T11:58:45.875Z,100092.31
2023-02-27T12:00:27.723Z,100089.66
2023-02-27T12:02:18.425Z,100085.31
2023-02-27T12:04:02.729Z,100088.72
2023-02-27T12:05:47.714Z,100090.38
2023-02-27T12:07:19.678Z,100091.22
2023-02-27T12:08:54.664Z,100091.22
2023-02-27T12:10:29.383Z,100092.06
2023-02-27T12:12:02.220Z,100088.66
2023-02-27T12:13:35.935Z,100086.88
2023-02-27T12:15:15.749Z,100092.88
2023-02-27T12:16:54.568Z,100086.72
2023-02-27T12:18:31.076Z,100086.72
2023-02-27T12:20:08.079Z,100093.41
2023-02-27T12:21:40.947Z,100095.88
2023-02-27T12:24:47.890Z,100098.19
2023-02-27T12:26:22.346Z,100097.28
2023-02-27T12:28:00.424Z,100100.56
2023-02-27T12:29:33.870Z,100096.09
2023-02-27T12:31:14.953Z,100102.16
2023-02-27T12:33:10.190Z,100098.59
2023-02-27T12:34:43.643Z,100101.94
2023-02-27T12:36:15.754Z,100096.75
2023-02-27T12:37:47.578Z,100096.72
2023-02-27T12:39:23.572Z,100101.94
2023-02-27T12:41:14.023Z,100098.53
2023-02-27T12:42:58.091Z,100103.06
2023-02-27T12:44:42.243Z,100098.78
2023-02-27T12:46:14.361Z,100099.75
2023-02-27T12:48:18.597Z,100106.13
2023-02-27T12:50:13.471Z,100108.47
2023-02-27T12:53:24.242Z,100112.06
2023-02-27T12:55:02.262Z,100111.16
2023-02-27T12:56:52.558Z,100123.19
2023-02-27T12:58:27.293Z,100118.09
2023-02-27T13:00:11.280Z,100116.53
2023-02-27T13:01:48.823Z,100112.47
2023-02-27T13:03:40.342Z,100114.22
2023-02-27T13:05:12.395Z,100119.38
2023-02-27T13:06:52.990Z,100118.47
2023-02-27T13:08:45.165Z,100117.66
2023-02-27T13:10:23.454Z,100109.13
2023-02-27T13:12:01.232Z,100102.22
2023-02-27T13:13:42.561Z,100104.94
2023-02-27T13:15:22.603Z,100110.25
2023-02-27T13:16:58.217Z,100121.50
2023-02-27T13:18:39.097Z,100126.69
2023-02-27T13:20:20.078Z,100124.03
2023-02-27T13:21:53.560Z,100125.97
2023-02-27T13:23:43.646Z,100128.66
2023-02-27T13:25:15.951Z,100121.75
2023-02-27T13:26:49.814Z,100131.31
2023-02-27T13:28:23.998Z,100123.66
2023-02-27T13:30:01.648Z,100121.91
2023-02-27T13:31:37.360Z,100120.22
2023-02-27T13:33:32.397Z,100116.88
2023-02-27T13:35:07.870Z,100127.09
2023-02-27T13:36:47.365Z,100127.06
2023-02-27T13:38:42.344Z,100132.25
2023-02-27T13:40:30.847Z,100128.00
2023-02-27T13:42:02.773Z,100132.47
2023-02-27T13:43:51.458Z,100132.41
2023-02-27T13:45:42.246Z,100122.88
2023-02-27T13:47:29.269Z,100129.66
2023-02-27T13:49:04.070Z,100133.00
2023-02-27T13:50:36.028Z,100130.50
2023-02-27T13:52:07.948Z,100132.25
2023-02-27T13:53:40.237Z,100130.63
2023-02-27T13:55:32.140Z,100126.38
2023-02-27T13:57:04.037Z,100129.00
2023-02-27T13:58:35.938Z,100129.06
2023-02-27T14:00:17.330Z,100130.72
2023-02-27T14:01:52.582Z,100129.81
2023-02-27T14:03:26.315Z,100128.13
2023-02-27T14:04:58.587Z,100127.22
2023-02-27T14:06:30.542Z,100129.06
2023-02-27T14:08:09.505Z,100143.72
2023-02-27T14:09:41.926Z,100130.81
2023-02-27T14:11:20.995Z,100135.09
2023-02-27T14:12:53.461Z,100134.28
2023-02-27T14:14:54.562Z,100127.38
2023-02-27T14:16:38.862Z,100127.34
2023-02-27T14:18:34.097Z,100121.38
2023-02-27T14:20:30.767Z,100124.81
2023-02-27T14:22:04.313Z,100128.22
2023-02-27T14:23:36.375Z,100125.63
2023-02-27T14:25:17.080Z,100127.34
2023-02-27T14:26:49.003Z,100136.88
2023-02-27T14:28:23.766Z,100127.31
2023-02-27T14:29:57.110Z,100128.19
2023-02-27T14:31:35.395Z,100134.22
2023-02-27T14:33:39.736Z,100128.22
2023-02-27T14:35:12.551Z,100129.94
2023-02-27T14:36:45.325Z,100130.88
2023-02-27T14:38:17.495Z,100126.53
2023-02-27T14:39:51.155Z,100129.19
2023-02-27T14:41:22.965Z,100127.59
2023-02-27T14:43:04.886Z,100132.75
2023-02-27T14:44:38.129Z,100127.66
2023-02-27T14:46:15.539Z,100131.00
2023-02-27T14:47:47.528Z,100134.44
2023-02-27T14:49:21.925Z,100143.88
2023-02-27T14:52:31.302Z,100156.75
2023-02-27T14:54:03.237Z,100153.31
2023-02-27T14:55:35.735Z,100157.56
2023-02-27T14:57:07.833Z,100156.75
2023-02-27T14:58:39.749Z,100156.75
2023-02-27T15:00:29.291Z,100164.56
2023-02-27T15:02:07.470Z,100169.75
2023-02-27T15:03:46.739Z,100167.28
2023-02-27T15:05:20.240Z,100168.97
2023-02-27T15:06:54.776Z,100169.88
2023-02-27T15:08:31.454Z,100179.34
2023-02-27T15:10:05.072Z,100189.75
2023-02-27T15:11:41.086Z,100194.13
2023-02-27T15:13:31.389Z,100196.78
2023-02-27T15:15:03.757Z,100189.91
2023-02-27T15:16:36.296Z,100191.66
2023-02-27T15:18:12.712Z,100194.19
2023-02-27T15:19:51.401Z,100195.09
2023-02-27T15:21:24.961Z,100202.06
2023-02-27T15:22:57.788Z,100197.00
2023-02-27T15:24:35.267Z,100196.09
2023-02-27T15:26:13.439Z,100191.81
2023-02-27T15:27:45.297Z,100200.53
2023-02-27T15:29:18.745Z,100195.41
2023-02-27T15:30:54.396Z,100192.84
2023-02-27T15:32:33.279Z,100203.16
2023-02-27T15:34:05.227Z,100202.31
2023-02-27T15:35:37.491Z,100204.03
2023-02-27T15:37:09.365Z,100210.16
2023-02-27T15:38:41.236Z,100217.91
2023-02-27T15:40:15.512Z,100214.47
2023-02-27T15:41:49.013Z,100223.94
2023-02-27T15:43:21.004Z,100226.50
2023-02-27T15:44:53.721Z,100233.38
2023-02-27T15:46:26.256Z,100231.63
2023-02-27T15:47:58.211Z,100235.03
2023-02-27T15:49:30.113Z,100242.75
2023-02-27T15:51:03.239Z,100250.50
2023-02-27T15:52:47.107Z,100253.91
2023-02-27T15:54:21.276Z,100260.78
2023-02-27T15:55:57.092Z,100262.53
2023-02-27T15:57:30.877Z,100259.09
2023-02-27T15:59:02.785Z,100236.75
2023-02-27T16:00:34.839Z,100239.34
2023-02-27T16:02:07.157Z,100240.22
2023-02-27T16:03:40.434Z,100241.09
2023-02-27T16:05:15.948Z,100242.81
2023-02-27T16:06:48.917Z,100240.31
2023-02-27T16:08:20.780Z,100250.72
2023-02-27T16:11:27.102Z,100267.94
2023-02-27T16:12:58.983Z,100275.69
2023-02-27T16:14:37.350Z,100274.00
2023-02-27T16:16:20.977Z,100271.44
2023-02-27T16:18:02.387Z,100278.38
2023-02-27T16:19:34.449Z,100283.53
2023-02-27T16:21:13.725Z,100283.53
2023-02-27T16:23:01.355Z,100266.38
2023-02-27T16:24:33.973Z,100280.19
2023-02-27T16:26:21.333Z,100268.16
2023-02-27T16:27:53.337Z,100280.28
2023-02-27T16:29:36.104Z,100285.41
2023-02-27T16:31:13.798Z,100284.56
2023-02-27T16:32:45.780Z,100288.00
2023-02-27T16:34:26.143Z,100288.03
2023-02-27T16:36:06.072Z,100297.47
2023-02-27T16:37:39.089Z,100315.53
2023-02-27T16:39:13.813Z,100306.94
2023-02-27T16:40:46.548Z,100321.56
2023-02-27T16:42:18.520Z,100327.56
2023-02-27T16:43:51.080Z,100336.19
2023-02-27T16:45:24.542Z,100338.75
2023-02-27T16:46:57.190Z,100343.94
2023-02-27T16:48:29.102Z,100344.81
2023-02-27T16:50:01.163Z,100343.94
2023-02-27T16:51:37.649Z,100337.94
2023-02-27T16:53:09.564Z,100336.22
2023-02-27T16:54:42.521Z,100331.06
2023-02-27T16:56:15.096Z,100321.59
2023-02-27T16:57:47.012Z,100310.41
2023-02-27T16:59:35.335Z,100312.16
2023-02-27T17:01:07.314Z,100325.06
2023-02-27T17:02:39.309Z,100337.97
2023-02-27T17:04:25.276Z,100346.53
2023-02-27T17:05:58.324Z,100345.72
2023-02-27T17:07:30.936Z,100357.72
2023-02-27T17:09:02.969Z,100361.19
2023-02-27T17:10:35.189Z,100356.88
2023-02-27T17:12:07.126Z,100357.72
2023-02-27T17:13:39.089Z,100364.63
2023-02-27T17:15:11.042Z,100368.91
2023-02-27T17:16:43.054Z,100362.03
2023-02-27T17:18:15.387Z,100369.78
2023-02-27T17:19:47.282Z,100367.19
2023-02-27T17:21:19.151Z,100375.78
2023-02-27T17:22:51.023Z,100374.06
2023-02-27T17:24:22.921Z,100374.94
2023-02-27T17:25:56.129Z,100374.09
2023-02-27T17:27:27.971Z,100374.06
2023-02-27T17:29:00.176Z,100388.69
2023-02-27T17:30:32.204Z,100386.13
2023-02-27T17:32:04.401Z,100380.09
2023-02-27T17:33:36.432Z,100376.66
2023-02-27T17:35:09.284Z,100364.63
2023-02-27T17:36:41.186Z,100362.91
2023-02-27T17:38:13.143Z,100369.78
2023-02-27T17:39:45.057Z,100378.38
2023-02-27T17:41:17.210Z,100386.97
2023-02-27T17:42:49.197Z,100390.41
2023-02-27T17:44:21.189Z,100399.91
2023-02-27T17:45:53.055Z,100406.75
2023-02-27T17:47:24.960Z,100402.47
2023-02-27T17:49:00.844Z,100412.78
2023-02-27T17:50:32.707Z,100407.63
2023-02-27T17:52:04.554Z,100416.22
2023-02-27T17:53:36.620Z,100423.09
2023-02-27T17:56:42.352Z,100412.78
2023-02-27T17:58:14.363Z,100418.81
2023-02-27T17:59:46.173Z,100410.19
2023-02-27T18:01:21.798Z,100408.47
2023-02-27T18:02:53.686Z,100411.03
2023-02-27T18:04:25.702Z,100405.03
2023-02-27T18:06:00.306Z,100404.16
2023-02-27T18:07:32.509Z,100402.44
2023-02-27T18:09:04.883Z,100407.59
2023-02-27T18:10:37.226Z,100408.44
2023-02-27T18:12:09.239Z,100419.59
2023-02-27T18:13:41.394Z,100419.63
2023-02-27T18:15:13.787Z,100424.75
2023-02-27T18:16:45.720Z,100420.47
2023-02-27T18:18:18.039Z,100423.03
2023-02-27T18:19:49.942Z,100419.59
2023-02-27T18:21:23.089Z,100426.47
2023-02-27T18:22:54.963Z,100425.59
2023-02-27T18:24:29.937Z,100417.88
2023-02-27T18:26:01.897Z,100402.38
2023-02-27T18:27:33.773Z,100394.66
2023-02-27T18:29:10.431Z,100398.09
2023-02-27T18:30:42.317Z,100396.38
2023-02-27T18:32:14.267Z,100417.00
2023-02-27T18:33:46.145Z,100412.69
2023-02-27T18:35:18.098Z,100413.56
2023-02-27T18:36:50.181Z,100412.69
2023-02-27T18:38:22.211Z,100404.97
2023-02-27T18:39:54.170Z,100411.00
2023-02-27T18:41:26.392Z,100409.25
2023-02-27T18:42:58.420Z,100408.44
2023-02-27T18:44:30.324Z,100410.13
2023-02-27T18:46:02.590Z,100404.13
2023-02-27T18:47:34.485Z,100410.13
2023-02-27T18:49:06.552Z,100419.63
2023-02-27T18:50:38.447Z,100413.59
2023-02-27T18:52:10.433Z,100418.75
2023-02-27T18:53:44.572Z,100424.78
2023-02-27T18:56:56.962Z,100431.63
2023-02-27T18:58:28.914Z,100432.50
2023-02-27T19:00:00.813Z,100430.78
2023-02-27T19:01:34.015Z,100440.22
2023-02-27T19:03:06.140Z,100443.69
2023-02-27T19:04:38.074Z,100440.25
2023-02-27T19:06:10.084Z,100438.50
2023-02-27T19:07:42.816Z,100445.41
2023-02-27T19:09:16.583Z,100441.97
2023-02-27T19:10:48.511Z,100440.25
2023-02-27T19:12:20.439Z,100446.25
2023-02-27T19:13:52.795Z,100449.69
2023-02-27T19:15:24.966Z,100449.69
2023-02-27T19:17:00.679Z,100459.16
2023-02-27T19:18:32.539Z,100458.28
2023-02-27T19:20:06.653Z,100444.56
2023-02-27T19:21:38.815Z,100453.13
2023-02-27T19:23:10.839Z,100452.28
2023-02-27T19:24:42.985Z,100456.56
2023-02-27T19:26:15.612Z,100457.44
2023-02-27T19:27:47.606Z,100455.72
2023-02-27T19:29:19.615Z,100462.59
2023-02-27T19:30:51.601Z,100459.13
2023-02-27T19:32:23.772Z,100457.44
2023-02-27T19:33:55.959Z,100455.72
2023-02-27T19:35:27.829Z,100454.84
2023-02-27T19:36:59.652Z,100459.16